Time;durP1;ratioP1;P1;durP2;ratioP2;P2;SDS_P1;SDS_P2;PMS_P1;PMS_P2;Temp;Humidity;BMP_temperature;BMP_pressure;BME280_temperature;BME280_humidity;BME280_pressure;Samples;Min_cycle;Max_cycle;Signal;HPM_P1;HPM_P2
2022/08/23 00:01:33;;;;;;;4.22;2.30;;;22.30;99.40;;;;;;5059609;28;20197;-68
2022/08/23 00:04:05;;;;;;;2.97;2.47;;;22.30;99.50;;;;;;5062836;28;20209;-69
2022/08/23 00:06:32;;;;;;;2.78;2.13;;;22.30;99.50;;;;;;5063770;28;20296;-68
2022/08/23 00:08:58;;;;;;;3.47;2.60;;;22.20;99.60;;;;;;5066871;28;20202;-68
2022/08/23 00:11:42;;;;;;;3.78;2.60;;;22.30;99.60;;;;;;5068610;28;20222;-69
2022/08/23 00:14:16;;;;;;;3.50;2.63;;;22.30;99.50;;;;;;5068527;28;20198;-68
2022/08/23 00:16:44;;;;;;;3.65;2.53;;;22.20;99.80;;;;;;5066337;28;20233;-69
2022/08/23 00:19:13;;;;;;;3.42;2.50;;;22.10;99.90;;;;;;5068194;28;20585;-67
2022/08/23 00:21:40;;;;;;;4.50;2.80;;;22.00;99.90;;;;;;5068061;28;20201;-68
2022/08/23 00:24:10;;;;;;;3.55;2.50;;;21.90;99.90;;;;;;5060934;28;20340;-68
2022/08/23 00:27:03;;;;;;;2.45;2.25;;;21.90;99.90;;;;;;5067845;28;20221;-67
2022/08/23 00:29:40;;;;;;;4.45;2.58;;;21.90;99.90;;;;;;5062063;28;20205;-69
2022/08/23 00:32:11;;;;;;;3.05;2.30;;;21.80;99.90;;;;;;5066068;28;20195;-68
2022/08/23 00:34:38;;;;;;;4.80;2.45;;;21.70;99.90;;;;;;5067926;28;20194;-68
2022/08/23 00:37:07;;;;;;;3.53;2.35;;;21.70;99.90;;;;;;5068333;28;20717;-68
2022/08/23 00:39:35;;;;;;;3.97;2.40;;;21.70;99.90;;;;;;5069442;28;20200;-69
2022/08/23 00:48:07;;;;;;;3.75;2.28;;;21.60;99.90;;;;;;5070948;28;20231;-69
2022/08/23 00:50:47;;;;;;;3.08;2.30;;;21.50;99.90;;;;;;5051948;28;20224;-69
2022/08/23 00:53:16;;;;;;;4.60;2.53;;;21.40;99.90;;;;;;5071977;28;20198;-69
2022/08/23 00:55:46;;;;;;;4.13;3.00;;;21.30;99.90;;;;;;5070557;28;20222;-69
2022/08/23 00:58:15;;;;;;;2.88;2.20;;;21.20;99.90;;;;;;5067738;28;20565;-68
2022/08/23 01:00:42;;;;;;;2.97;2.30;;;21.10;99.90;;;;;;5072239;28;20205;-69
2022/08/23 01:03:11;;;;;;;3.30;2.40;;;21.10;99.90;;;;;;5067604;28;20194;-69
2022/08/23 01:05:54;;;;;;;2.90;2.50;;;21.20;99.90;;;;;;5072030;28;20648;-68
2022/08/23 01:08:24;;;;;;;3.50;2.70;;;21.10;99.90;;;;;;5065471;28;20674;-69
2022/08/23 01:11:07;;;;;;;4.77;2.70;;;21.10;99.90;;;;;;5072830;28;20722;-68
2022/08/23 01:13:47;;;;;;;3.83;2.37;;;21.10;99.90;;;;;;5066229;28;20209;-69
2022/08/23 01:16:49;;;;;;;4.00;2.47;;;21.20;99.90;;;;;;5071235;28;20218;-69
2022/08/23 01:19:33;;;;;;;4.03;2.53;;;21.00;99.90;;;;;;5071331;28;20190;-69
2022/08/23 01:22:20;;;;;;;4.55;2.40;;;20.80;99.90;;;;;;5051316;28;20670;-69
2022/08/23 01:24:47;;;;;;;3.00;2.30;;;20.70;99.90;;;;;;5071321;28;20305;-69
2022/08/23 01:27:35;;;;;;;4.73;2.40;;;20.60;99.90;;;;;;5064697;28;20229;-68
2022/08/23 01:30:04;;;;;;;3.63;2.50;;;20.50;99.90;;;;;;5070623;28;20225;-69
2022/08/23 01:32:36;;;;;;;2.50;2.10;;;20.40;99.90;;;;;;5070821;28;20194;-69
2022/08/23 01:35:03;;;;;;;5.50;2.63;;;20.20;99.90;;;;;;5052947;28;20195;-68
2022/08/23 01:37:30;;;;;;;2.57;2.37;;;20.20;99.90;;;;;;5070648;28;20214;-68
2022/08/23 01:39:57;;;;;;;3.20;2.23;;;20.10;99.90;;;;;;5070619;28;20270;-68
2022/08/23 01:42:23;;;;;;;3.47;2.37;;;20.00;99.90;;;;;;5067748;28;20198;-69
2022/08/23 01:44:50;;;;;;;3.10;2.50;;;19.90;99.90;;;;;;5068549;28;20190;-68
2022/08/23 01:47:17;;;;;;;2.83;2.47;;;19.80;99.90;;;;;;5069832;28;20240;-69
2022/08/23 01:49:43;;;;;;;3.27;2.67;;;19.70;99.90;;;;;;5062986;28;20195;-69
2022/08/23 01:52:10;;;;;;;3.13;2.23;;;19.70;99.90;;;;;;5051220;28;20202;-67
2022/08/23 01:54:37;;;;;;;3.67;2.43;;;19.80;99.90;;;;;;5069741;28;20202;-69
2022/08/23 01:57:05;;;;;;;3.20;2.40;;;19.70;99.90;;;;;;5066609;28;20219;-67
2022/08/23 01:59:32;;;;;;;4.20;2.30;;;19.60;99.90;;;;;;5056817;28;20203;-69
2022/08/23 02:01:59;;;;;;;3.27;2.10;;;19.50;99.90;;;;;;5052554;28;20442;-69
2022/08/23 02:04:26;;;;;;;3.33;2.30;;;19.60;99.90;;;;;;5052481;28;20206;-69
2022/08/23 02:06:53;;;;;;;3.90;2.53;;;19.60;99.90;;;;;;5051995;28;20277;-69
2022/08/23 02:09:21;;;;;;;5.07;2.70;;;19.50;99.90;;;;;;5052496;28;20195;-68
2022/08/23 02:11:51;;;;;;;3.03;2.50;;;19.50;99.90;;;;;;5052192;28;20219;-69
2022/08/23 02:14:19;;;;;;;4.97;2.63;;;19.70;99.90;;;;;;5039905;28;20191;-68
2022/08/23 02:16:49;;;;;;;4.03;2.30;;;19.70;99.90;;;;;;5051759;28;20227;-69
2022/08/23 02:19:32;;;;;;;5.60;2.60;;;19.60;99.90;;;;;;5052143;28;20195;-66
2022/08/23 02:21:59;;;;;;;3.53;2.43;;;19.40;99.90;;;;;;5051867;28;20705;-69
2022/08/23 02:24:26;;;;;;;4.50;2.60;;;19.20;99.90;;;;;;5052724;28;20229;-68
2022/08/23 02:26:55;;;;;;;3.33;2.57;;;19.10;99.90;;;;;;5071892;28;20835;-68
2022/08/23 02:29:24;;;;;;;3.97;2.63;;;18.90;99.90;;;;;;5052199;28;20205;-68
2022/08/23 02:31:51;;;;;;;3.73;2.40;;;18.90;99.90;;;;;;5052175;28;20254;-68
2022/08/23 02:34:19;;;;;;;4.40;2.70;;;18.80;99.90;;;;;;5034224;28;20242;-68
2022/08/23 02:36:46;;;;;;;3.20;2.60;;;19.00;99.90;;;;;;5051347;28;20211;-69
2022/08/23 02:39:15;;;;;;;3.20;2.77;;;19.10;99.90;;;;;;5054385;28;20191;-69
2022/08/23 02:41:42;;;;;;;5.10;2.83;;;19.10;99.90;;;;;;5051778;28;20194;-68
2022/08/23 02:44:09;;;;;;;3.57;2.67;;;19.10;99.90;;;;;;5051602;28;20203;-67
2022/08/23 02:46:37;;;;;;;5.50;3.10;;;19.10;99.90;;;;;;5051163;28;20223;-68
2022/08/23 02:49:04;;;;;;;5.80;2.87;;;19.10;99.90;;;;;;5051452;28;20522;-68
2022/08/23 02:51:33;;;;;;;5.17;2.97;;;19.10;99.90;;;;;;5051905;28;20544;-69
2022/08/23 02:54:00;;;;;;;3.53;2.83;;;19.00;99.90;;;;;;5062378;28;20195;-68
2022/08/23 02:56:26;;;;;;;5.63;2.63;;;19.00;99.90;;;;;;5061674;28;20214;-68
2022/08/23 02:58:53;;;;;;;5.40;2.80;;;19.00;99.90;;;;;;5051040;28;20636;-68
2022/08/23 03:01:26;;;;;;;4.60;3.23;;;18.90;99.90;;;;;;5051123;28;20724;-68
2022/08/23 03:03:53;;;;;;;3.70;2.80;;;18.90;99.90;;;;;;5051348;28;20210;-67
2022/08/23 03:06:21;;;;;;;5.00;2.90;;;18.90;99.90;;;;;;5051143;28;20227;-68
2022/08/23 03:08:50;;;;;;;4.80;2.80;;;19.00;99.90;;;;;;5051451;28;20198;-68
2022/08/23 03:11:22;;;;;;;3.00;2.63;;;19.00;99.90;;;;;;5050900;28;20219;-68
2022/08/23 03:13:49;;;;;;;4.37;2.97;;;18.90;99.90;;;;;;5051390;28;20199;-68
2022/08/23 03:16:17;;;;;;;6.37;2.83;;;18.80;99.90;;;;;;5050826;28;20215;-68
2022/08/23 03:18:44;;;;;;;3.27;2.70;;;18.70;99.90;;;;;;5051049;28;20206;-68
2022/08/23 03:21:11;;;;;;;3.83;2.90;;;18.70;99.90;;;;;;5053623;28;20194;-69
2022/08/23 03:23:38;;;;;;;3.93;3.00;;;18.70;99.90;;;;;;5050969;28;20195;-68
2022/08/23 03:26:07;;;;;;;3.60;2.97;;;18.70;99.90;;;;;;5050352;28;20219;-67
2022/08/23 03:28:34;;;;;;;6.53;2.80;;;18.60;99.90;;;;;;5055245;28;20239;-68
2022/08/23 03:31:02;;;;;;;3.73;3.00;;;18.40;99.90;;;;;;5050804;28;20214;-68
2022/08/23 03:33:29;;;;;;;8.07;3.00;;;18.30;99.90;;;;;;5050734;28;20665;-68
2022/08/23 03:36:00;;;;;;;4.30;2.93;;;18.10;99.90;;;;;;5050282;28;20219;-68
2022/08/23 03:38:27;;;;;;;3.63;2.93;;;18.10;99.90;;;;;;5050906;28;20198;-69
2022/08/23 03:40:54;;;;;;;5.50;2.90;;;18.10;99.90;;;;;;5050454;28;20666;-68
2022/08/23 03:43:21;;;;;;;4.47;2.80;;;18.20;99.90;;;;;;5050314;28;20210;-69
2022/08/23 03:45:48;;;;;;;3.27;2.90;;;18.20;99.90;;;;;;5055033;28;20214;-69
2022/08/23 03:48:15;;;;;;;4.43;3.33;;;18.30;99.90;;;;;;5050158;28;20198;-68
2022/08/23 03:50:42;;;;;;;6.57;3.27;;;18.30;99.90;;;;;;5050276;28;20633;-69
2022/08/23 03:53:09;;;;;;;5.47;3.10;;;18.30;99.90;;;;;;5050566;28;20500;-68
2022/08/23 03:55:39;;;;;;;4.73;3.30;;;18.30;99.90;;;;;;5049808;28;20671;-68
2022/08/23 03:58:09;;;;;;;3.53;2.90;;;18.10;99.90;;;;;;5050389;28;20274;-68
2022/08/23 04:00:36;;;;;;;5.43;3.33;;;18.10;99.90;;;;;;5050343;28;20195;-68
2022/08/23 04:03:03;;;;;;;4.03;3.10;;;18.10;99.90;;;;;;5050235;28;20221;-68
2022/08/23 04:05:29;;;;;;;4.00;2.90;;;18.00;99.90;;;;;;5049852;28;20191;-69
2022/08/23 04:07:56;;;;;;;4.40;2.60;;;18.10;99.90;;;;;;5050074;28;20265;-68
2022/08/23 04:10:22;;;;;;;4.50;3.27;;;18.00;99.90;;;;;;5049736;28;20199;-69
2022/08/23 04:12:51;;;;;;;3.77;2.83;;;18.00;99.90;;;;;;5049508;28;20207;-67
2022/08/23 04:15:19;;;;;;;6.57;2.90;;;18.00;99.90;;;;;;5049880;28;20198;-68
2022/08/23 04:17:46;;;;;;;3.67;3.00;;;17.90;99.90;;;;;;5050326;28;20206;-69
2022/08/23 04:20:12;;;;;;;4.63;3.27;;;17.80;99.90;;;;;;5050440;28;20248;-68
2022/08/23 04:22:39;;;;;;;6.13;3.10;;;17.70;99.90;;;;;;5050077;28;20221;-68
2022/08/23 04:25:06;;;;;;;5.60;3.10;;;17.80;99.90;;;;;;5049855;28;20187;-68
2022/08/23 04:27:53;;;;;;;4.33;3.20;;;17.90;99.90;;;;;;5050202;28;20259;-69
2022/08/23 04:30:20;;;;;;;8.40;3.30;;;17.80;99.90;;;;;;5054547;28;20199;-69
2022/08/23 04:32:47;;;;;;;6.77;3.43;;;17.80;99.90;;;;;;5060020;28;20244;-68
2022/08/23 04:35:15;;;;;;;4.17;3.50;;;17.90;99.90;;;;;;5070250;28;20195;-68
2022/08/23 04:37:42;;;;;;;7.97;3.10;;;18.00;99.90;;;;;;5070105;28;20198;-67
2022/08/23 04:42:55;;;;;;;4.83;3.27;;;17.80;99.90;;;;;;5070249;28;20194;-68
2022/08/23 04:45:22;;;;;;;6.77;3.30;;;17.80;99.90;;;;;;5069927;28;20228;-69
2022/08/23 04:47:49;;;;;;;4.97;3.73;;;17.80;99.90;;;;;;5050981;28;20198;-68
2022/08/23 04:50:16;;;;;;;5.93;3.30;;;17.90;99.90;;;;;;5050287;28;20203;-68
2022/08/23 04:52:42;;;;;;;4.53;3.47;;;17.80;99.90;;;;;;5050115;28;20288;-68
2022/08/23 04:55:11;;;;;;;7.00;4.13;;;17.90;99.90;;;;;;5050197;28;20343;-68
2022/08/23 04:57:41;;;;;;;6.07;3.97;;;17.90;99.90;;;;;;5049779;28;20239;-69
2022/08/23 05:00:13;;;;;;;7.67;3.77;;;17.90;99.90;;;;;;5049992;28;20693;-68
2022/08/23 05:02:39;;;;;;;4.97;3.23;;;17.80;99.90;;;;;;5050352;28;20199;-68
2022/08/23 05:05:08;;;;;;;6.77;3.70;;;17.80;99.90;;;;;;5032492;28;20670;-68
2022/08/23 05:07:36;;;;;;;6.03;3.83;;;17.90;99.90;;;;;;5049494;28;20242;-68
2022/08/23 05:10:11;;;;;;;6.30;3.53;;;17.90;99.90;;;;;;5050005;28;20191;-67
2022/08/23 05:12:38;;;;;;;7.00;4.00;;;18.00;99.90;;;;;;5049791;28;20222;-69
2022/08/23 05:15:05;;;;;;;4.43;3.43;;;18.10;99.90;;;;;;5066597;28;20196;-69
2022/08/23 05:17:32;;;;;;;6.40;3.47;;;18.10;99.90;;;;;;5049582;28;20226;-68
2022/08/23 05:19:58;;;;;;;5.73;3.40;;;18.10;99.90;;;;;;5050052;28;20195;-68
2022/08/23 05:22:25;;;;;;;5.43;3.23;;;18.10;99.90;;;;;;5051299;28;20205;-68
2022/08/23 05:24:52;;;;;;;5.43;3.20;;;18.10;99.90;;;;;;5053276;28;20198;-69
2022/08/23 05:27:18;;;;;;;6.03;3.37;;;18.20;99.90;;;;;;5052717;28;20249;-68
2022/08/23 05:29:46;;;;;;;5.30;3.23;;;18.30;99.90;;;;;;5053844;28;20206;-68
2022/08/23 05:32:12;;;;;;;4.40;3.30;;;18.40;99.90;;;;;;5054114;28;20219;-70
2022/08/23 05:34:39;;;;;;;8.33;3.17;;;18.60;99.90;;;;;;5053112;28;20195;-69
2022/08/23 05:37:05;;;;;;;4.33;3.23;;;18.60;99.90;;;;;;5053489;28;20214;-68
2022/08/23 05:39:32;;;;;;;5.13;3.37;;;18.70;99.90;;;;;;5053659;28;20194;-68
2022/08/23 05:42:04;;;;;;;4.63;3.20;;;18.70;99.90;;;;;;5036050;28;20637;-69
2022/08/23 05:44:30;;;;;;;5.83;3.20;;;18.70;99.90;;;;;;5035427;28;20198;-69
2022/08/23 05:47:05;;;;;;;4.60;3.27;;;18.60;99.90;;;;;;5052817;28;20301;-68
2022/08/23 05:49:37;;;;;;;7.57;3.07;;;18.60;99.90;;;;;;5053074;28;20666;-68
2022/08/23 05:52:07;;;;;;;5.83;3.07;;;18.70;99.90;;;;;;5052952;28;20218;-69
2022/08/23 05:54:35;;;;;;;5.33;3.13;;;18.70;99.90;;;;;;5052781;28;20195;-69
2022/08/23 05:57:01;;;;;;;5.43;3.33;;;18.80;99.90;;;;;;5052453;28;20218;-69
2022/08/23 05:59:28;;;;;;;5.97;3.30;;;19.00;99.90;;;;;;5053387;28;20253;-69
2022/08/23 06:01:56;;;;;;;4.63;3.03;;;19.30;99.90;;;;;;5053243;28;20198;-68
2022/08/23 06:04:22;;;;;;;8.67;3.20;;;19.50;99.90;;;;;;5053229;28;20206;-69
2022/08/23 06:06:49;;;;;;;3.60;2.93;;;19.50;99.90;;;;;;5053604;28;20211;-68
2022/08/23 06:09:17;;;;;;;7.57;2.90;;;19.60;99.90;;;;;;5052746;28;20716;-69
2022/08/23 06:11:46;;;;;;;4.43;2.90;;;19.80;99.90;;;;;;5052780;28;20268;-69
2022/08/23 06:14:13;;;;;;;8.80;3.10;;;19.90;99.90;;;;;;5038050;28;20198;-69
2022/08/23 06:16:43;;;;;;;3.53;2.93;;;19.90;99.90;;;;;;5034459;28;20333;-69
2022/08/23 06:19:11;;;;;;;4.70;3.10;;;20.10;99.90;;;;;;5052289;28;20732;-69
2022/08/23 06:21:38;;;;;;;4.90;3.00;;;20.10;99.90;;;;;;5051993;28;20729;-69
2022/08/23 06:24:06;;;;;;;4.43;2.70;;;20.20;99.90;;;;;;5053308;28;20199;-68
2022/08/23 06:26:40;;;;;;;6.15;2.70;;;20.30;99.90;;;;;;5052180;28;20297;-68
2022/08/23 06:29:10;;;;;;;6.83;3.40;;;20.40;99.90;;;;;;5052364;28;20194;-69
2022/08/23 06:31:45;;;;;;;6.55;3.15;;;20.80;99.90;;;;;;5055856;28;20210;-68
2022/08/23 06:34:32;;;;;;;5.78;2.90;;;20.90;99.90;;;;;;5052145;28;20190;-69
2022/08/23 06:37:04;;;;;;;10.70;3.28;;;20.90;99.90;;;;;;5051890;28;20210;-68
2022/08/23 06:39:31;;;;;;;6.30;3.60;;;21.10;99.90;;;;;;5052233;28;20256;-69
2022/08/23 06:42:06;;;;;;;15.13;3.92;;;21.10;99.90;;;;;;5052101;28;20198;-69
2022/08/23 06:44:52;;;;;;;11.10;3.22;;;21.20;99.90;;;;;;5051442;28;20580;-69
2022/08/23 06:47:21;;;;;;;9.48;3.53;;;21.30;99.90;;;;;;5051481;28;20219;-68
2022/08/23 06:49:49;;;;;;;7.88;3.30;;;21.40;99.90;;;;;;5052016;28;20742;-69
2022/08/23 06:52:24;;;;;;;15.65;4.28;;;21.60;99.90;;;;;;5051931;28;20210;-69
2022/08/23 06:54:51;;;;;;;13.57;3.50;;;21.70;99.90;;;;;;5054102;28;20504;-69
2022/08/23 06:57:19;;;;;;;13.85;3.58;;;21.90;99.90;;;;;;5055565;28;20302;-69
2022/08/23 06:59:48;;;;;;;7.25;3.30;;;22.10;99.90;;;;;;5053641;28;20281;-68
2022/08/23 07:02:14;;;;;;;5.70;2.95;;;22.20;99.90;;;;;;5054130;28;20253;-69
2022/08/23 07:04:41;;;;;;;5.35;2.83;;;22.30;99.90;;;;;;5052890;28;20233;-68
2022/08/23 07:07:08;;;;;;;4.45;2.90;;;22.50;99.90;;;;;;5052069;28;20218;-68
2022/08/23 07:09:39;;;;;;;5.97;3.05;;;22.60;99.90;;;;;;5060443;28;20616;-67
2022/08/23 07:12:06;;;;;;;4.97;3.03;;;22.70;99.90;;;;;;5069820;28;20304;-68
2022/08/23 07:14:33;;;;;;;5.88;3.08;;;23.00;99.90;;;;;;5062672;28;20721;-69
2022/08/23 07:17:02;;;;;;;5.95;3.00;;;23.40;99.90;;;;;;5071334;28;20641;-69
2022/08/23 07:19:31;;;;;;;7.70;3.05;;;23.70;99.90;;;;;;5071394;28;20190;-68
2022/08/23 07:21:59;;;;;;;12.38;2.90;;;24.20;99.90;;;;;;5065173;28;20206;-68
2022/08/23 07:24:27;;;;;;;12.10;3.50;;;24.20;99.90;;;;;;5051400;28;20199;-69
2022/08/23 07:27:00;;;;;;;4.10;3.03;;;24.20;99.90;;;;;;5050876;28;20219;-67
2022/08/23 07:29:28;;;;;;;10.15;4.07;;;24.30;99.90;;;;;;5050672;28;20618;-69
2022/08/23 07:31:56;;;;;;;10.85;3.20;;;24.40;99.90;;;;;;5050479;28;20240;-69
2022/08/23 07:34:24;;;;;;;7.53;3.45;;;24.60;99.90;;;;;;5050318;28;20202;-69
2022/08/23 07:36:52;;;;;;;11.25;3.10;;;24.80;99.90;;;;;;5050333;28;20296;-68
2022/08/23 07:39:22;;;;;;;5.70;2.63;;;24.80;99.90;;;;;;5050517;28;20229;-67
2022/08/23 07:41:48;;;;;;;25.58;4.15;;;24.90;99.90;;;;;;5050297;28;20198;-68
2022/08/23 07:44:16;;;;;;;11.25;3.45;;;25.00;99.90;;;;;;5050287;28;20202;-69
2022/08/23 07:46:45;;;;;;;6.38;3.20;;;25.10;99.90;;;;;;5049381;28;20272;-68
2022/08/23 07:49:12;;;;;;;7.63;3.00;;;25.30;99.90;;;;;;5050355;28;20199;-69
2022/08/23 07:51:41;;;;;;;15.07;4.03;;;25.40;99.90;;;;;;5050633;28;20205;-69
2022/08/23 07:54:09;;;;;;;6.43;2.95;;;25.40;99.90;;;;;;5050565;28;20191;-70
2022/08/23 07:56:36;;;;;;;8.52;3.20;;;25.50;99.90;;;;;;5050119;28;20211;-69
2022/08/23 07:59:04;;;;;;;9.30;2.90;;;25.60;99.90;;;;;;5050341;28;20202;-69
2022/08/23 08:01:31;;;;;;;4.97;2.97;;;25.60;99.90;;;;;;5050128;28;20555;-69
2022/08/23 08:04:00;;;;;;;7.78;3.10;;;25.80;99.90;;;;;;5050476;28;20334;-68
2022/08/23 08:06:39;;;;;;;11.05;3.70;;;25.80;99.90;;;;;;5049998;28;20221;-69
2022/08/23 08:09:08;;;;;;;9.40;3.40;;;25.90;99.90;;;;;;5050240;28;20195;-69
2022/08/23 08:11:35;;;;;;;6.18;3.10;;;25.90;99.90;;;;;;5050256;28;20202;-70
2022/08/23 08:14:06;;;;;;;6.18;3.10;;;26.00;99.90;;;;;;5032551;28;20269;-69
2022/08/23 08:16:41;;;;;;;4.20;3.25;;;26.10;99.90;;;;;;5049816;28;20219;-69
2022/08/23 08:19:10;;;;;;;5.40;3.05;;;26.00;99.90;;;;;;5050542;28;20193;-69
2022/08/23 08:21:38;;;;;;;5.55;3.15;;;26.20;99.90;;;;;;5050173;28;20191;-69
2022/08/23 08:24:09;;;;;;;6.45;3.03;;;26.20;99.90;;;;;;5050456;28;20577;-68
2022/08/23 08:26:36;;;;;;;4.05;2.72;;;26.30;99.90;;;;;;5049885;28;20218;-69
2022/08/23 08:29:04;;;;;;;6.55;3.53;;;26.40;99.90;;;;;;5056532;28;20607;-69
2022/08/23 08:31:31;;;;;;;4.53;2.80;;;26.50;99.90;;;;;;5070030;28;20213;-68
2022/08/23 08:33:57;;;;;;;5.45;3.20;;;26.60;99.90;;;;;;5066899;28;20799;-69
2022/08/23 08:36:34;;;;;;;10.52;3.42;;;26.70;99.90;;;;;;5049534;28;20219;-68
2022/08/23 08:39:07;;;;;;;11.98;3.75;;;26.60;99.90;;;;;;5049912;28;20225;-68
2022/08/23 08:41:57;;;;;;;8.70;3.40;;;26.60;99.90;;;;;;5050064;28;20361;-70
2022/08/23 08:44:48;;;;;;;7.10;3.50;;;26.60;99.90;;;;;;5049725;28;20577;-69
2022/08/23 08:47:20;;;;;;;8.82;3.90;;;26.40;99.90;;;;;;5033478;28;20301;-68
2022/08/23 08:49:59;;;;;;;6.07;3.22;;;26.30;99.90;;;;;;5032448;28;20198;-70
2022/08/23 08:52:31;;;;;;;9.30;3.50;;;26.30;99.90;;;;;;5049560;28;20218;-69
2022/08/23 08:55:06;;;;;;;8.40;3.60;;;26.60;99.90;;;;;;5049543;28;20191;-69
2022/08/23 08:57:43;;;;;;;4.75;3.33;;;26.80;99.90;;;;;;5050357;28;20321;-70
2022/08/23 09:00:19;;;;;;;7.28;3.35;;;27.00;99.90;;;;;;5054203;28;20256;-70
2022/08/23 09:02:46;;;;;;;6.30;3.38;;;27.20;99.90;;;;;;5071943;28;20202;-70
2022/08/23 09:05:18;;;;;;;7.90;3.47;;;27.20;99.90;;;;;;5054904;28;20257;-69
2022/08/23 09:07:48;;;;;;;4.43;3.08;;;27.20;99.90;;;;;;5053344;28;20617;-70
2022/08/23 09:10:33;;;;;;;7.95;3.45;;;27.30;99.90;;;;;;5053360;28;20195;-69
2022/08/23 09:13:22;;;;;;;6.78;3.58;;;27.50;99.90;;;;;;5053454;28;20214;-70
2022/08/23 09:16:09;;;;;;;12.70;3.40;;;27.40;99.90;;;;;;5039709;28;20210;-69
2022/08/23 09:18:37;;;;;;;5.82;3.28;;;27.50;99.90;;;;;;5072962;28;20210;-70
2022/08/23 09:21:07;;;;;;;4.90;3.65;;;27.70;99.90;;;;;;5054763;28;20198;-69
2022/08/23 09:23:42;;;;;;;6.85;3.45;;;27.90;99.90;;;;;;5053517;28;20198;-70
2022/08/23 09:26:24;;;;;;;8.00;3.78;;;27.80;99.90;;;;;;5053008;28;20220;-69
2022/08/23 09:28:54;;;;;;;5.22;3.53;;;27.60;99.90;;;;;;5053046;28;20202;-69
2022/08/23 09:31:46;;;;;;;5.30;3.50;;;27.40;99.90;;;;;;5053171;28;20206;-70
2022/08/23 09:34:21;;;;;;;8.35;3.47;;;27.60;99.90;;;;;;5035354;28;20214;-69
2022/08/23 09:36:48;;;;;;;5.88;3.35;;;27.60;99.90;;;;;;5052502;28;20222;-70
2022/08/23 09:39:29;;;;;;;5.18;3.60;;;27.70;99.90;;;;;;5053385;28;20290;-70
2022/08/23 09:41:57;;;;;;;9.35;3.70;;;27.90;99.90;;;;;;5053130;28;20195;-70
2022/08/23 09:44:39;;;;;;;6.35;3.30;;;27.90;99.90;;;;;;5052648;28;20202;-69
2022/08/23 09:47:10;;;;;;;9.82;3.33;;;27.90;99.90;;;;;;5052581;28;20218;-70
2022/08/23 09:49:40;;;;;;;12.60;4.13;;;28.10;99.90;;;;;;5052685;28;20199;-70
2022/08/23 09:52:45;;;;;;;10.43;3.67;;;28.20;99.90;;;;;;5052847;28;20191;-70
2022/08/23 09:55:27;;;;;;;7.55;3.15;;;28.50;99.90;;;;;;5048033;28;20249;-69
2022/08/23 09:57:54;;;;;;;5.47;3.33;;;28.60;99.90;;;;;;5052318;28;20202;-69
2022/08/23 10:00:27;;;;;;;4.53;3.10;;;28.80;99.70;;;;;;5052126;28;20286;-70
2022/08/23 10:03:14;;;;;;;4.32;3.40;;;29.00;99.60;;;;;;5052273;28;20654;-69
2022/08/23 10:05:41;;;;;;;5.40;3.40;;;29.20;99.10;;;;;;5052175;28;20223;-69
2022/08/23 10:08:07;;;;;;;7.22;3.20;;;29.20;99.40;;;;;;5052220;28;20243;-70
2022/08/23 10:10:47;;;;;;;4.78;3.00;;;29.20;99.30;;;;;;5051063;28;20195;-70
2022/08/23 10:13:17;;;;;;;6.95;3.78;;;29.40;99.20;;;;;;5052513;28;20247;-70
2022/08/23 10:16:02;;;;;;;7.90;3.85;;;29.50;99.10;;;;;;5052267;28;20219;-70
2022/08/23 10:18:55;;;;;;;6.90;3.40;;;29.40;98.40;;;;;;5051941;28;20707;-70
2022/08/23 10:21:47;;;;;;;5.00;3.42;;;29.40;98.60;;;;;;5052049;28;20689;-70
2022/08/23 10:24:37;;;;;;;5.53;3.47;;;29.50;98.80;;;;;;5052232;28;20195;-69
2022/08/23 10:30:10;;;;;;;5.30;3.53;;;29.80;98.20;;;;;;5052051;28;20195;-69
2022/08/23 10:32:57;;;;;;;6.05;3.90;;;29.70;98.10;;;;;;5053748;28;20218;-69
2022/08/23 10:35:34;;;;;;;4.75;3.33;;;29.70;98.00;;;;;;5057766;28;20663;-69
2022/08/23 10:38:29;;;;;;;3.78;3.28;;;29.70;97.90;;;;;;5052290;28;20195;-70
2022/08/23 10:41:19;;;;;;;8.43;3.20;;;29.70;98.20;;;;;;5068232;28;20702;-70
2022/08/23 10:44:22;;;;;;;4.88;3.42;;;29.80;98.30;;;;;;5051280;28;20206;-69
2022/08/23 10:46:59;;;;;;;4.65;3.65;;;30.10;98.20;;;;;;5051254;28;20215;-70
2022/08/23 10:49:27;;;;;;;7.43;3.75;;;30.10;97.70;;;;;;5051387;28;20206;-69
2022/08/23 10:51:56;;;;;;;9.20;3.75;;;30.10;97.60;;;;;;5052925;28;20194;-69
2022/08/23 10:54:45;;;;;;;7.63;3.55;;;30.10;97.90;;;;;;5053568;28;20701;-69
2022/08/23 10:57:16;;;;;;;5.20;3.33;;;30.30;97.80;;;;;;5051160;28;20219;-71
2022/08/23 10:59:46;;;;;;;4.72;3.72;;;30.30;97.90;;;;;;5051009;28;20698;-72
2022/08/23 11:02:49;;;;;;;5.75;3.53;;;30.50;97.90;;;;;;5064771;28;20198;-69
2022/08/23 11:05:21;;;;;;;4.30;3.40;;;30.80;97.40;;;;;;5066723;28;20247;-69
2022/08/23 11:08:09;;;;;;;5.03;3.33;;;31.00;97.20;;;;;;5071163;28;20198;-70
2022/08/23 11:10:38;;;;;;;4.65;3.33;;;31.10;97.00;;;;;;5056159;28;20256;-69
2022/08/23 11:13:14;;;;;;;5.25;3.30;;;31.30;96.70;;;;;;5051118;28;20214;-70
2022/08/23 11:16:06;;;;;;;8.20;3.53;;;31.30;96.80;;;;;;5053131;28;20221;-70
2022/08/23 11:18:33;;;;;;;5.28;3.53;;;31.40;96.70;;;;;;5062520;28;20210;-71
2022/08/23 11:21:16;;;;;;;9.98;3.30;;;31.50;96.50;;;;;;5050884;28;20193;-69
2022/08/23 11:23:42;;;;;;;9.88;3.53;;;31.60;96.50;;;;;;5050942;28;20201;-70
2022/08/23 11:26:21;;;;;;;6.45;3.60;;;31.80;96.10;;;;;;5050926;28;20234;-70
2022/08/23 11:28:50;;;;;;;5.90;3.45;;;31.80;96.10;;;;;;5051059;28;20256;-69
2022/08/23 11:31:28;;;;;;;7.05;3.30;;;31.80;95.80;;;;;;5050975;28;20280;-70
2022/08/23 11:34:22;;;;;;;4.75;3.50;;;31.70;95.60;;;;;;5050780;28;20497;-70
2022/08/23 11:37:49;;;;;;;3.95;3.13;;;31.50;95.80;;;;;;5051076;28;20747;-69
2022/08/23 11:40:56;;;;;;;5.55;3.50;;;31.60;96.00;;;;;;4964954;28;20282;-70
2022/08/23 11:43:33;;;;;;;4.75;3.25;;;31.70;96.00;;;;;;5050561;28;20198;-69
2022/08/23 11:46:30;;;;;;;9.00;3.63;;;31.70;95.60;;;;;;5053542;28;20220;-69
2022/08/23 11:48:57;;;;;;;5.70;3.60;;;31.80;96.00;;;;;;5050184;28;20663;-70
2022/08/23 11:51:58;;;;;;;6.63;3.47;;;31.90;95.40;;;;;;5050694;28;20210;-70
2022/08/23 11:55:02;;;;;;;6.75;3.13;;;32.00;95.60;;;;;;5050295;28;20219;-70
2022/08/23 11:57:51;;;;;;;5.85;3.13;;;32.10;95.30;;;;;;5050164;28;20210;-70
2022/08/23 12:00:23;;;;;;;5.20;3.22;;;32.20;95.40;;;;;;5050549;28;20199;-70
2022/08/23 12:03:02;;;;;;;7.95;3.55;;;32.30;95.10;;;;;;5050141;28;20199;-70
2022/08/23 12:05:32;;;;;;;5.05;3.38;;;32.30;94.90;;;;;;5049915;28;20202;-70
2022/08/23 12:08:02;;;;;;;5.93;3.05;;;32.40;94.70;;;;;;5050298;28;20429;-70
2022/08/23 12:10:41;;;;;;;4.65;3.40;;;32.50;94.70;;;;;;5050263;28;20202;-70
2022/08/23 12:13:19;;;;;;;5.50;3.53;;;32.50;94.50;;;;;;5049948;28;20218;-69
2022/08/23 12:16:18;;;;;;;3.97;3.10;;;32.50;94.60;;;;;;5049768;28;20298;-70
2022/08/23 12:18:52;;;;;;;4.68;3.50;;;32.70;94.00;;;;;;5049844;28;20206;-70
2022/08/23 12:21:40;;;;;;;4.10;3.17;;;32.60;93.70;;;;;;5049528;28;20724;-71
2022/08/23 12:24:21;;;;;;;3.80;2.80;;;32.70;94.00;;;;;;5050068;28;20202;-70
2022/08/23 12:27:12;;;;;;;5.13;3.30;;;32.70;93.80;;;;;;5049715;28;20721;-70
2022/08/23 12:29:52;;;;;;;5.45;3.22;;;32.80;93.70;;;;;;5057347;28;20289;-71
2022/08/23 12:32:24;;;;;;;6.18;3.22;;;32.80;93.60;;;;;;5052058;28;20207;-70
2022/08/23 12:34:58;;;;;;;4.90;3.53;;;32.80;93.40;;;;;;5057184;28;20662;-70
2022/08/23 12:37:51;;;;;;;4.63;2.90;;;32.80;93.40;;;;;;5056272;28;20215;-70
2022/08/23 12:40:30;;;;;;;4.32;3.20;;;32.80;93.40;;;;;;5057257;28;20190;-71
2022/08/23 12:43:10;;;;;;;8.52;3.50;;;32.80;92.90;;;;;;5056799;28;20198;-71
2022/08/23 12:45:52;;;;;;;5.70;3.35;;;33.00;92.80;;;;;;5057001;28;20615;-71
2022/08/23 12:48:23;;;;;;;6.65;3.38;;;33.10;93.00;;;;;;5057562;28;20198;-70
2022/08/23 12:50:59;;;;;;;32.75;5.38;;;33.20;92.20;;;;;;5040548;28;20248;-70
2022/08/23 12:53:33;;;;;;;13.85;3.33;;;33.20;93.00;;;;;;5057454;28;20225;-70
2022/08/23 12:56:03;;;;;;;8.88;3.38;;;33.20;92.70;;;;;;5056816;28;20365;-70
2022/08/23 12:58:33;;;;;;;6.53;3.28;;;33.40;91.60;;;;;;5057156;28;20209;-70
2022/08/23 13:01:07;;;;;;;11.73;3.95;;;33.30;91.20;;;;;;5057021;28;20615;-70
2022/08/23 13:03:43;;;;;;;5.72;3.40;;;33.20;91.70;;;;;;5055309;28;20672;-70
2022/08/23 13:06:19;;;;;;;3.95;2.90;;;33.30;91.30;;;;;;5065331;28;20222;-70
2022/08/23 13:08:56;;;;;;;10.50;3.40;;;33.30;91.20;;;;;;5075000;28;20205;-70
2022/08/23 13:11:27;;;;;;;8.23;3.00;;;33.40;91.40;;;;;;5077065;28;20360;-70
2022/08/23 13:13:54;;;;;;;4.40;3.15;;;33.40;91.30;;;;;;5055127;28;20214;-69
2022/08/23 13:16:36;;;;;;;6.68;3.40;;;33.40;91.30;;;;;;5056033;28;20219;-69
2022/08/23 13:19:30;;;;;;;6.20;3.17;;;33.50;90.90;;;;;;5056739;28;20202;-70
2022/08/23 13:22:12;;;;;;;4.72;3.10;;;33.30;90.60;;;;;;5071323;28;20197;-70
2022/08/23 13:24:45;;;;;;;6.93;4.35;;;33.30;90.60;;;;;;5056011;28;20229;-69
2022/08/23 13:27:20;;;;;;;7.43;3.22;;;33.10;90.70;;;;;;5056138;28;20214;-71